Time;durP1;ratioP1;P1;durP2;ratioP2;P2;SDS_P1;SDS_P2;PMS_P1;PMS_P2;Temp;Humidity;BMP_temperature;BMP_pressure;BME280_temperature;BME280_humidity;BME280_pressure;Samples;Min_cycle;Max_cycle;Signal;HPM_P1;HPM_P2
2021/04/06 00:02:13;;;;;;;2.65;1.30;;;2.90;99.90;;;;;;4956370;29;20438;-75
2021/04/06 00:04:41;;;;;;;5.47;0.90;;;2.90;99.90;;;;;;4956530;29;20047;-76
2021/04/06 00:07:09;;;;;;;2.70;0.70;;;2.90;99.90;;;;;;4956183;29;20051;-76
2021/04/06 00:09:36;;;;;;;5.28;0.95;;;2.90;99.90;;;;;;4955993;29;20252;-77
2021/04/06 00:12:04;;;;;;;5.68;1.05;;;2.90;99.90;;;;;;4955870;29;20461;-74
2021/04/06 00:14:31;;;;;;;6.78;0.70;;;2.90;99.90;;;;;;4955706;29;20051;-75
2021/04/06 00:16:59;;;;;;;2.33;0.63;;;2.90;99.90;;;;;;4956102;29;20059;-76
2021/04/06 00:19:27;;;;;;;4.22;0.60;;;2.90;99.90;;;;;;4956062;29;20452;-74
2021/04/06 00:21:55;;;;;;;5.63;1.77;;;2.90;99.90;;;;;;4956196;29;20121;-75
2021/04/06 00:24:23;;;;;;;5.88;1.10;;;2.90;99.90;;;;;;4956313;28;20051;-74
2021/04/06 00:26:50;;;;;;;3.15;0.90;;;2.90;99.90;;;;;;4959756;29;20054;-74
2021/04/06 00:29:17;;;;;;;3.95;0.80;;;2.90;99.90;;;;;;4959963;29;20061;-74
2021/04/06 00:31:45;;;;;;;2.90;0.68;;;2.80;99.90;;;;;;4960052;29;20059;-74
2021/04/06 00:34:12;;;;;;;4.82;1.02;;;2.80;99.90;;;;;;4960090;29;20051;-75
2021/04/06 00:36:40;;;;;;;3.28;0.70;;;2.80;99.90;;;;;;4959566;28;20055;-76
2021/04/06 00:39:06;;;;;;;4.25;0.95;;;2.80;99.90;;;;;;4959958;29;20407;-75
2021/04/06 00:41:33;;;;;;;3.72;0.68;;;2.80;99.90;;;;;;4959494;29;20464;-74
2021/04/06 00:43:59;;;;;;;6.18;0.70;;;2.80;99.90;;;;;;4959796;29;20051;-75
2021/04/06 00:46:27;;;;;;;5.55;1.02;;;2.80;99.90;;;;;;4959305;29;20047;-75
2021/04/06 00:48:56;;;;;;;4.40;1.15;;;2.80;99.90;;;;;;4959550;29;20056;-74
2021/04/06 00:51:24;;;;;;;5.75;1.63;;;2.70;99.90;;;;;;4959795;29;20079;-75
2021/04/06 00:53:57;;;;;;;16.20;1.33;;;2.80;99.90;;;;;;4959671;29;20055;-74
2021/04/06 00:56:25;;;;;;;3.70;1.50;;;2.70;99.90;;;;;;4959525;29;20069;-75
2021/04/06 00:58:52;;;;;;;3.38;0.80;;;2.80;99.90;;;;;;4959290;29;20057;-75
2021/04/06 01:01:27;;;;;;;5.18;0.90;;;2.70;99.90;;;;;;4959599;29;20051;-75
2021/04/06 01:03:56;;;;;;;6.43;0.80;;;2.70;99.90;;;;;;4959139;29;20381;-75
2021/04/06 01:06:23;;;;;;;7.13;1.20;;;2.70;99.90;;;;;;4959590;29;20051;-75
2021/04/06 01:08:49;;;;;;;2.92;1.00;;;2.60;99.90;;;;;;4959222;29;20050;-75
2021/04/06 01:11:17;;;;;;;2.90;1.15;;;2.60;99.90;;;;;;4958835;29;20468;-75
2021/04/06 01:13:43;;;;;;;10.00;1.30;;;2.60;99.90;;;;;;4959249;29;20393;-75
2021/04/06 01:16:10;;;;;;;2.35;0.70;;;2.60;99.90;;;;;;4959167;29;20051;-75
2021/04/06 01:18:36;;;;;;;8.00;1.38;;;2.60;99.90;;;;;;4958833;29;20047;-75
2021/04/06 01:21:07;;;;;;;11.88;1.08;;;2.60;99.90;;;;;;4958992;29;20055;-75
2021/04/06 01:23:36;;;;;;;8.90;1.35;;;2.60;99.90;;;;;;4958963;29;20043;-75
2021/04/06 01:26:03;;;;;;;3.13;0.73;;;2.60;99.90;;;;;;4958917;29;20053;-75
2021/04/06 01:28:30;;;;;;;2.60;0.60;;;2.60;99.90;;;;;;4959075;29;20483;-75
2021/04/06 01:30:58;;;;;;;3.13;0.90;;;2.60;99.90;;;;;;4958867;29;20059;-75
2021/04/06 01:33:25;;;;;;;3.03;0.47;;;2.60;99.90;;;;;;4958875;29;20152;-75
2021/04/06 01:35:53;;;;;;;7.32;0.85;;;2.60;99.90;;;;;;4958166;28;20063;-75
2021/04/06 01:38:21;;;;;;;7.00;1.20;;;2.50;99.90;;;;;;4958821;29;20047;-75
2021/04/06 01:40:49;;;;;;;5.55;1.05;;;2.50;99.90;;;;;;4958441;29;20146;-75
2021/04/06 01:43:17;;;;;;;6.55;0.95;;;2.50;99.90;;;;;;4958729;29;20055;-75
2021/04/06 01:45:44;;;;;;;3.40;0.80;;;2.50;99.90;;;;;;4958622;29;20069;-75
2021/04/06 01:48:12;;;;;;;4.13;0.90;;;2.50;99.90;;;;;;4958854;29;20051;-75
2021/04/06 01:50:39;;;;;;;5.57;0.98;;;2.50;99.90;;;;;;4958301;29;20086;-75
2021/04/06 01:53:05;;;;;;;5.10;0.65;;;2.50;99.90;;;;;;4958378;29;20047;-75
2021/04/06 01:55:32;;;;;;;6.18;0.80;;;2.50;99.90;;;;;;4958397;29;20075;-75
2021/04/06 01:58:00;;;;;;;6.13;0.98;;;2.50;99.90;;;;;;4958312;29;20051;-75
2021/04/06 02:00:33;;;;;;;2.83;0.68;;;2.50;99.90;;;;;;4958434;29;20059;-75
2021/04/06 02:03:04;;;;;;;3.30;0.32;;;2.50;99.90;;;;;;4958120;29;20453;-75
2021/04/06 02:05:30;;;;;;;2.58;0.85;;;2.60;99.90;;;;;;4958637;29;20078;-75
2021/04/06 02:07:58;;;;;;;3.55;0.90;;;2.60;99.90;;;;;;4958137;29;20054;-75
2021/04/06 02:10:25;;;;;;;4.45;0.68;;;2.50;99.90;;;;;;4957898;29;20127;-75
2021/04/06 02:12:51;;;;;;;8.25;1.73;;;2.50;99.90;;;;;;4958220;29;20047;-75
2021/04/06 02:15:19;;;;;;;5.93;1.25;;;2.60;99.90;;;;;;4957737;29;20047;-75
2021/04/06 02:17:49;;;;;;;4.45;0.93;;;2.50;99.90;;;;;;4958058;29;20055;-75
2021/04/06 02:20:22;;;;;;;2.20;1.20;;;2.50;99.90;;;;;;4958062;29;20061;-75
2021/04/06 02:22:56;;;;;;;6.95;1.38;;;2.50;99.90;;;;;;4958032;29;20055;-75
2021/04/06 02:25:22;;;;;;;5.97;1.13;;;2.50;99.90;;;;;;4957782;29;20433;-75
2021/04/06 02:27:49;;;;;;;3.65;0.82;;;2.50;99.90;;;;;;4957858;29;20047;-75
2021/04/06 02:30:16;;;;;;;4.88;0.50;;;2.50;99.90;;;;;;4957872;29;20404;-75
2021/04/06 02:32:44;;;;;;;8.18;0.77;;;2.50;99.90;;;;;;4957555;29;20044;-75
2021/04/06 02:35:11;;;;;;;2.20;0.55;;;2.40;99.90;;;;;;4957606;28;20059;-75
2021/04/06 02:37:39;;;;;;;4.57;0.60;;;2.40;99.90;;;;;;4957595;29;20050;-75
2021/04/06 02:40:07;;;;;;;4.95;0.60;;;2.40;99.90;;;;;;4957627;29;20375;-75
2021/04/06 02:42:34;;;;;;;6.90;0.60;;;2.40;99.90;;;;;;4956843;29;20048;-75
2021/04/06 02:45:08;;;;;;;6.78;1.52;;;2.40;99.90;;;;;;4953105;29;20052;-75
2021/04/06 02:47:37;;;;;;;4.55;0.60;;;2.30;99.90;;;;;;4937671;29;20051;-75
2021/04/06 02:50:06;;;;;;;3.70;0.70;;;2.30;99.90;;;;;;4938297;29;20059;-75
2021/04/06 02:52:33;;;;;;;2.90;0.60;;;2.30;99.90;;;;;;4938235;29;20074;-75
2021/04/06 02:55:00;;;;;;;2.95;0.47;;;2.30;99.90;;;;;;4938184;29;20062;-75
2021/04/06 02:57:26;;;;;;;5.75;0.63;;;2.30;99.90;;;;;;4938240;29;20416;-75
2021/04/06 02:59:53;;;;;;;4.30;0.52;;;2.30;99.90;;;;;;4938218;29;20048;-75
2021/04/06 03:02:20;;;;;;;6.60;0.63;;;2.30;99.90;;;;;;4938065;29;20062;-75
2021/04/06 03:04:47;;;;;;;1.90;0.20;;;2.30;99.90;;;;;;4938342;29;20055;-75
2021/04/06 03:07:18;;;;;;;7.05;1.17;;;2.30;99.90;;;;;;4937798;29;20059;-75
2021/04/06 03:09:52;;;;;;;2.15;0.52;;;2.20;99.90;;;;;;4937830;29;20060;-75
2021/04/06 03:12:19;;;;;;;7.70;1.35;;;2.20;99.90;;;;;;4957116;29;20047;-75
2021/04/06 03:14:46;;;;;;;7.03;0.70;;;2.20;99.90;;;;;;4956900;29;20047;-75
2021/04/06 03:17:13;;;;;;;1.65;0.75;;;2.20;99.90;;;;;;4956963;29;20055;-75
2021/04/06 03:19:40;;;;;;;1.25;0.45;;;2.10;99.90;;;;;;4956857;29;20057;-75
2021/04/06 03:22:07;;;;;;;5.85;0.55;;;2.10;99.90;;;;;;4957038;29;20381;-75
2021/04/06 03:24:34;;;;;;;1.95;0.65;;;2.10;99.90;;;;;;4956989;29;20051;-75
2021/04/06 03:27:01;;;;;;;5.45;0.65;;;2.10;99.90;;;;;;4956976;29;20055;-75
2021/04/06 03:29:29;;;;;;;1.80;0.30;;;2.10;99.90;;;;;;4956818;29;20062;-75
2021/04/06 03:31:56;;;;;;;1.30;0.45;;;2.00;99.90;;;;;;4957027;29;20058;-75
2021/04/06 03:34:22;;;;;;;4.68;0.65;;;2.00;99.90;;;;;;4956743;29;20047;-75
2021/04/06 03:36:49;;;;;;;3.33;0.52;;;2.00;99.90;;;;;;4956283;28;20077;-75
2021/04/06 03:39:16;;;;;;;2.92;1.05;;;1.90;99.90;;;;;;4956992;29;20090;-75
2021/04/06 03:41:43;;;;;;;2.10;0.75;;;1.90;99.90;;;;;;4956545;29;20051;-75
2021/04/06 03:44:11;;;;;;;4.60;0.65;;;1.90;99.90;;;;;;4956264;29;20058;-75
2021/04/06 03:46:38;;;;;;;3.92;0.75;;;1.90;99.90;;;;;;4956390;29;20114;-75
2021/04/06 03:49:15;;;;;;;7.28;1.30;;;1.90;99.90;;;;;;4958362;29;20050;-77
2021/04/06 03:51:49;;;;;;;2.10;0.45;;;1.90;99.90;;;;;;4958181;29;20078;-78
2021/04/06 03:54:37;;;;;;;4.07;0.90;;;1.80;99.90;;;;;;4961684;29;20075;-79
2021/04/06 03:59:40;;;;;;;5.90;0.95;;;1.70;99.90;;;;;;5205087;23;19937;-78
2021/04/06 04:02:06;;;;;;;2.60;0.40;;;1.70;99.90;;;;;;4939826;29;20066;-74
2021/04/06 04:04:33;;;;;;;5.95;0.90;;;1.70;99.90;;;;;;4937168;29;20384;-74
2021/04/06 04:07:02;;;;;;;3.75;0.75;;;1.70;99.90;;;;;;4937033;29;20052;-74
2021/04/06 04:09:30;;;;;;;8.27;0.70;;;1.70;99.90;;;;;;4937217;29;20071;-74
2021/04/06 04:11:57;;;;;;;2.13;0.90;;;1.70;99.90;;;;;;4937008;29;20062;-74
2021/04/06 04:14:26;;;;;;;2.08;0.50;;;1.70;99.90;;;;;;4938212;29;20392;-74
2021/04/06 04:16:54;;;;;;;4.57;0.90;;;1.70;99.90;;;;;;4956148;29;20146;-74
2021/04/06 04:19:23;;;;;;;3.30;0.82;;;1.70;99.90;;;;;;4956071;29;20515;-73
2021/04/06 04:21:50;;;;;;;10.50;1.23;;;1.60;99.90;;;;;;4956142;29;20059;-73
2021/04/06 04:24:17;;;;;;;5.45;1.10;;;1.60;99.90;;;;;;4956271;29;20051;-74
2021/04/06 04:26:44;;;;;;;1.48;0.50;;;1.70;99.90;;;;;;4955808;29;20054;-74
2021/04/06 04:29:10;;;;;;;6.40;0.50;;;1.60;99.90;;;;;;4956250;29;20055;-73
2021/04/06 04:31:37;;;;;;;4.60;0.57;;;1.70;99.90;;;;;;4955943;29;20058;-74
2021/04/06 04:34:05;;;;;;;4.93;1.15;;;1.60;99.90;;;;;;4955660;29;20183;-73
2021/04/06 04:36:31;;;;;;;2.85;0.50;;;1.60;99.90;;;;;;4955751;29;20538;-73
2021/04/06 04:38:58;;;;;;;3.50;0.65;;;1.60;99.90;;;;;;4956147;29;20077;-73
2021/04/06 04:41:24;;;;;;;;;;;1.60;99.90;;;;;;4956328;29;20057;-74
2021/04/06 04:43:51;;;;;;;4.78;0.90;;;1.60;99.90;;;;;;4954429;29;20740;-74
2021/04/06 04:46:17;;;;;;;8.32;1.30;;;1.50;99.90;;;;;;4959826;29;20047;-77
2021/04/06 05:22:13;;;;;;;;;;;1.30;99.90;;;;;;6113286;23;20079;31
2021/04/06 05:24:43;;;;;;;4.68;0.98;;;1.20;99.90;;;;;;4932735;29;19994;-80
2021/04/06 05:27:11;;;;;;;2.55;0.50;;;1.30;99.90;;;;;;4933295;29;20484;-78
2021/04/06 05:29:38;;;;;;;5.88;0.98;;;1.20;99.90;;;;;;4932255;29;20055;-78
2021/04/06 05:32:06;;;;;;;4.20;0.82;;;1.20;99.90;;;;;;4931907;29;20139;-78
2021/04/06 05:34:34;;;;;;;7.97;0.70;;;1.20;99.90;;;;;;4932600;29;20066;-78
2021/04/06 05:37:02;;;;;;;2.17;0.80;;;1.20;99.90;;;;;;4933174;29;20063;-78
2021/04/06 05:39:32;;;;;;;10.60;0.77;;;1.20;99.90;;;;;;4932404;29;20056;-78
2021/04/06 05:42:02;;;;;;;5.13;0.88;;;0.60;99.90;;;;;;4914842;29;20135;-78
2021/04/06 05:44:30;;;;;;;5.82;1.70;;;3.50;99.90;;;;;;4912493;29;20127;-78
2021/04/06 05:47:02;;;;;;;2.33;0.75;;;1.10;99.90;;;;;;4913663;29;20063;-78
2021/04/06 05:49:32;;;;;;;9.13;0.82;;;1.00;99.90;;;;;;4913427;29;20067;-78
2021/04/06 05:52:00;;;;;;;9.70;2.38;;;1.30;99.90;;;;;;4912053;29;20453;-78
2021/04/06 05:54:31;;;;;;;11.98;0.88;;;0.90;99.90;;;;;;4910953;29;20084;-78
2021/04/06 05:56:59;;;;;;;6.13;1.08;;;1.00;99.90;;;;;;4911210;29;20060;-78
2021/04/06 05:59:27;;;;;;;4.97;0.73;;;1.00;99.90;;;;;;4910397;29;20056;-78
2021/04/06 06:01:55;;;;;;;9.52;0.88;;;1.00;99.90;;;;;;4909317;29;20053;-78
2021/04/06 06:04:21;;;;;;;9.70;1.23;;;1.10;99.90;;;;;;4908846;29;20053;-78
2021/04/06 06:06:49;;;;;;;6.70;1.42;;;1.10;99.90;;;;;;4909231;29;20131;-78
2021/04/06 06:09:29;;;;;;;3.03;0.75;;;1.20;99.90;;;;;;4910168;29;20080;-78
2021/04/06 06:11:58;;;;;;;0.90;0.43;;;1.20;99.90;;;;;;4909317;29;20538;-78
2021/04/06 06:14:31;;;;;;;5.85;2.35;;;1.30;99.90;;;;;;4909946;29;20060;-78
2021/04/06 06:17:11;;;;;;;2.97;0.70;;;1.30;99.90;;;;;;4909454;29;20052;-78
2021/04/06 06:19:42;;;;;;;4.78;0.80;;;1.40;99.90;;;;;;4908912;29;20056;-78
2021/04/06 06:22:14;;;;;;;4.78;0.52;;;1.40;99.90;;;;;;4907408;29;20148;-78
2021/04/06 06:24:45;;;;;;;3.85;0.70;;;1.50;99.90;;;;;;4907106;29;20080;-78
2021/04/06 06:27:43;;;;;;;4.53;1.33;;;1.50;99.90;;;;;;4907983;29;20134;-78
2021/04/06 06:30:27;;;;;;;4.53;0.70;;;1.50;99.90;;;;;;4909822;29;20063;-78
2021/04/06 06:33:14;;;;;;;3.03;0.73;;;1.60;99.90;;;;;;4908039;29;20055;-78
2021/04/06 06:35:43;;;;;;;1.60;0.70;;;1.60;99.90;;;;;;4910165;29;20048;-78
2021/04/06 06:38:19;;;;;;;6.78;1.38;;;1.70;99.90;;;;;;4908958;29;20067;-78
2021/04/06 06:40:51;;;;;;;10.02;1.10;;;1.70;99.90;;;;;;4916980;29;20392;-78
2021/04/06 06:43:20;;;;;;;2.65;0.85;;;1.70;99.90;;;;;;4928525;29;20048;-78
2021/04/06 06:45:50;;;;;;;7.07;0.77;;;1.80;99.90;;;;;;4929463;29;20135;-78
2021/04/06 06:48:28;;;;;;;8.55;1.48;;;1.80;99.90;;;;;;4928989;29;20103;-78
2021/04/06 06:50:58;;;;;;;5.72;0.65;;;1.90;99.90;;;;;;4928887;29;20062;-78
2021/04/06 06:53:38;;;;;;;3.15;1.08;;;1.90;99.90;;;;;;4931367;29;20043;-78
2021/04/06 06:56:07;;;;;;;6.22;2.28;;;2.00;99.90;;;;;;4932178;29;20056;-78
2021/04/06 06:58:39;;;;;;;3.42;0.75;;;2.00;99.90;;;;;;4929187;29;20066;-78
2021/04/06 07:01:09;;;;;;;6.03;0.70;;;2.10;99.90;;;;;;4931262;29;20056;-78
2021/04/06 07:03:37;;;;;;;4.88;0.75;;;2.10;99.90;;;;;;4929844;29;20058;-78
2021/04/06 07:06:22;;;;;;;4.80;0.73;;;2.10;99.90;;;;;;4929385;29;20062;-78
2021/04/06 07:08:53;;;;;;;4.97;0.80;;;2.20;99.90;;;;;;4931081;29;20080;-78
2021/04/06 07:11:21;;;;;;;4.68;1.27;;;2.30;99.90;;;;;;4928464;29;20063;-78
2021/04/06 07:13:51;;;;;;;2.55;0.70;;;2.40;99.90;;;;;;4928268;29;20054;-78
2021/04/06 07:16:19;;;;;;;6.93;2.00;;;2.50;99.90;;;;;;4930972;29;20052;-78
2021/04/06 07:18:49;;;;;;;12.57;2.95;;;2.70;99.90;;;;;;4933138;29;20113;-78
2021/04/06 07:21:18;;;;;;;4.57;0.77;;;3.00;99.90;;;;;;4933292;29;20135;-78
2021/04/06 07:23:51;;;;;;;4.70;0.73;;;4.80;99.90;;;;;;4924990;29;20064;-80
2021/04/06 07:26:19;;;;;;;1.55;0.70;;;8.00;99.90;;;;;;4919018;29;20362;-82
2021/04/06 07:28:47;;;;;;;6.10;1.08;;;11.20;96.00;;;;;;4918959;29;20052;-81
2021/04/06 07:31:16;;;;;;;12.25;2.15;;;13.50;63.80;;;;;;4918713;29;20052;-80
2021/04/06 07:33:46;;;;;;;3.88;0.88;;;15.10;56.20;;;;;;4918594;29;20790;-80
2021/04/06 07:36:17;;;;;;;8.45;1.38;;;16.00;54.00;;;;;;4918573;29;20142;-80
2021/04/06 07:38:45;;;;;;;8.07;1.52;;;16.10;47.20;;;;;;4919351;29;20052;-81
2021/04/06 07:41:14;;;;;;;3.88;0.68;;;14.00;47.70;;;;;;4929825;29;20052;-81
2021/04/06 07:43:42;;;;;;;4.45;0.77;;;11.60;53.30;;;;;;4937405;29;20048;-82
2021/04/06 07:46:15;;;;;;;6.18;0.70;;;9.60;56.20;;;;;;4937114;29;20048;-82
2021/04/06 07:48:48;;;;;;;4.93;1.30;;;8.00;61.50;;;;;;4937252;29;20106;-82
2021/04/06 07:51:21;;;;;;;5.50;0.70;;;6.80;65.80;;;;;;4937403;29;20056;-83
2021/04/06 07:54:05;;;;;;;3.63;0.70;;;6.00;73.00;;;;;;4937261;29;20436;-82
2021/04/06 07:56:51;;;;;;;3.35;0.65;;;5.40;75.90;;;;;;4937407;29;20087;-81
2021/04/06 07:59:48;;;;;;;4.20;0.60;;;4.90;83.30;;;;;;4944171;29;20052;-79
2021/04/06 08:02:26;;;;;;;5.63;1.13;;;4.50;90.10;;;;;;4947387;29;20103;-78
2021/04/06 08:04:56;;;;;;;8.18;0.95;;;4.40;93.60;;;;;;4949580;29;20066;-78
2021/04/06 08:07:27;;;;;;;3.08;0.85;;;4.20;97.60;;;;;;4950335;29;20131;-78
2021/04/06 08:09:54;;;;;;;2.88;0.40;;;4.10;98.10;;;;;;4950146;29;20066;-78
2021/04/06 08:12:24;;;;;;;2.78;0.95;;;4.10;99.50;;;;;;4948867;29;20047;-78
2021/04/06 08:14:53;;;;;;;2.55;0.45;;;4.00;99.60;;;;;;4948796;29;20059;-78
2021/04/06 08:17:46;;;;;;;4.20;0.45;;;4.00;99.20;;;;;;4951344;29;20111;-79
2021/04/06 08:20:27;;;;;;;1.52;0.40;;;4.00;98.10;;;;;;4953051;29;20134;-78
2021/04/06 08:22:57;;;;;;;11.90;1.02;;;3.90;95.60;;;;;;4956271;29;20147;-78
2021/04/06 08:25:43;;;;;;;9.30;1.15;;;3.90;97.90;;;;;;4955501;29;20111;-78
2021/04/06 08:28:33;;;;;;;4.95;0.70;;;3.90;97.40;;;;;;4940059;29;20048;-78
2021/04/06 08:31:19;;;;;;;3.47;0.55;;;3.90;98.90;;;;;;4957177;29;20071;-78
2021/04/06 08:33:48;;;;;;;3.20;0.65;;;3.90;95.30;;;;;;4954606;29;20039;-78
2021/04/06 08:36:36;;;;;;;5.57;0.77;;;3.90;94.90;;;;;;4955874;29;20393;-78
2021/04/06 08:39:05;;;;;;;3.17;0.60;;;4.00;94.00;;;;;;4955362;29;20082;-79
2021/04/06 08:41:37;;;;;;;14.85;0.77;;;3.90;94.40;;;;;;4956258;29;20048;-78
2021/04/06 08:44:07;;;;;;;1.25;0.40;;;1.50;91.00;;;;;;4956325;29;20052;-78
2021/04/06 08:46:48;;;;;;;1.27;0.65;;;3.90;92.00;;;;;;4957424;29;20056;-78
2021/04/06 08:49:20;;;;;;;3.95;1.30;;;3.90;93.60;;;;;;5012669;23;20051;-79
2021/04/06 08:51:51;;;;;;;6.97;1.17;;;1.30;93.80;;;;;;4959083;29;20064;-79
2021/04/06 08:54:21;;;;;;;5.03;0.60;;;4.00;92.40;;;;;;4959011;29;20055;-79
2021/04/06 08:56:50;;;;;;;6.07;0.65;;;4.00;93.10;;;;;;4957545;29;20429;-78
2021/04/06 08:59:30;;;;;;;5.90;0.57;;;4.00;89.10;;;;;;4960744;29;20044;-78
2021/04/06 09:02:00;;;;;;;3.58;0.60;;;4.00;90.00;;;;;;4959178;29;20055;-78
2021/04/06 09:04:39;;;;;;;3.72;0.57;;;1.90;91.20;;;;;;4956421;29;20055;-78
2021/04/06 09:07:17;;;;;;;4.55;0.77;;;4.20;90.80;;;;;;4957583;29;20075;-78
2021/04/06 09:09:45;;;;;;;3.88;0.55;;;4.20;93.10;;;;;;4956548;29;20469;-78
2021/04/06 09:12:13;;;;;;;1.33;0.43;;;3.30;92.30;;;;;;4957539;29;20115;-78
2021/04/06 09:14:41;;;;;;;10.15;0.65;;;4.90;92.30;;;;;;4957271;29;20103;-79
2021/04/06 09:17:12;;;;;;;3.28;0.50;;;4.40;89.80;;;;;;4959183;29;20047;-79
2021/04/06 09:19:40;;;;;;;3.35;0.40;;;4.40;85.30;;;;;;4958035;29;20433;-79
2021/04/06 09:22:09;;;;;;;1.65;0.60;;;4.60;87.30;;;;;;4956657;29;20056;-78
2021/04/06 09:24:39;;;;;;;2.05;0.57;;;4.30;85.30;;;;;;4957557;29;20044;-78
2021/04/06 09:27:07;;;;;;;0.52;0.30;;;4.30;83.80;;;;;;4958170;29;20055;-78
2021/04/06 09:29:36;;;;;;;2.60;0.50;;;4.60;86.90;;;;;;4954764;29;20072;-78
2021/04/06 09:32:05;;;;;;;3.80;0.45;;;4.30;85.00;;;;;;4953957;29;20051;-77
2021/04/06 09:34:35;;;;;;;2.97;0.40;;;4.30;85.40;;;;;;4952378;29;20043;-78
2021/04/06 09:37:05;;;;;;;1.63;0.47;;;4.40;79.70;;;;;;4951849;29;20082;-78
2021/04/06 09:39:32;;;;;;;4.55;0.80;;;4.40;77.40;;;;;;4953015;29;20087;-78
2021/04/06 09:42:00;;;;;;;1.92;0.60;;;4.40;75.60;;;;;;4952675;29;20056;-78
2021/04/06 09:44:27;;;;;;;2.17;0.60;;;4.40;77.00;;;;;;4951961;29;20079;-78
2021/04/06 09:46:56;;;;;;;4.15;0.85;;;4.50;77.60;;;;;;4953193;29;20082;-78
2021/04/06 09:49:23;;;;;;;10.98;1.08;;;4.50;76.30;;;;;;4965885;28;20054;-78
2021/04/06 09:51:50;;;;;;;2.40;0.82;;;4.60;75.70;;;;;;4992252;28;20074;-78
2021/04/06 09:54:21;;;;;;;4.35;0.40;;;4.60;73.30;;;;;;4993279;28;20047;-78
2021/04/06 09:56:48;;;;;;;4.10;0.90;;;4.60;75.60;;;;;;4990294;28;20130;-78
2021/04/06 09:59:15;;;;;;;3.15;0.40;;;4.60;78.20;;;;;;4992294;28;20178;-78
2021/04/06 10:01:42;;;;;;;2.88;0.70;;;4.60;76.60;;;;;;4989502;28;20047;-78
2021/04/06 10:04:08;;;;;;;4.53;1.23;;;4.60;79.60;;;;;;4989374;28;20054;-78
2021/04/06 10:06:36;;;;;;;5.35;1.52;;;4.60;77.20;;;;;;4991401;28;20471;-78
2021/04/06 10:09:22;;;;;;;5.65;1.60;;;4.60;74.70;;;;;;4990092;28;20128;-78
2021/04/06 10:11:49;;;;;;;3.25;0.73;;;4.60;79.50;;;;;;4973622;28;20058;-78
2021/04/06 10:14:17;;;;;;;3.92;0.93;;;4.70;80.60;;;;;;4971757;29;20504;-78
2021/04/06 10:16:43;;;;;;;4.18;1.00;;;4.80;79.80;;;;;;4971630;29;20090;-78
2021/04/06 10:19:20;;;;;;;4.32;1.45;;;4.90;79.10;;;;;;4970002;29;20055;-78
2021/04/06 10:22:00;;;;;;;5.43;0.77;;;5.10;75.30;;;;;;4970587;29;20146;-78
2021/04/06 10:24:27;;;;;;;2.00;0.40;;;5.20;73.60;;;;;;4971495;29;20051;-78
2021/04/06 10:27:11;;;;;;;3.58;0.75;;;5.20;70.80;;;;;;4974041;29;20130;-78
2021/04/06 10:29:39;;;;;;;3.83;0.70;;;5.20;67.60;;;;;;4972116;29;20400;-78
2021/04/06 10:32:06;;;;;;;3.47;0.60;;;5.30;71.00;;;;;;4969464;29;20058;-78
2021/04/06 10:34:32;;;;;;;2.92;0.63;;;5.40;71.50;;;;;;4970565;29;20047;-77
2021/04/06 10:37:01;;;;;;;3.03;0.45;;;5.60;71.80;;;;;;4967415;29;20111;-78
2021/04/06 10:39:39;;;;;;;8.15;0.60;;;5.60;65.20;;;;;;4970182;28;20027;-78
2021/04/06 10:42:07;;;;;;;1.67;0.52;;;5.60;68.00;;;;;;4963850;29;20107;-78
2021/04/06 10:44:35;;;;;;;3.85;0.60;;;5.50;68.10;;;;;;4966460;29;20047;-78
2021/04/06 10:49:41;;;;;;;3.85;0.50;;;5.40;70.50;;;;;;5560444;23;20040;-78
2021/04/06 10:52:10;;;;;;;1.40;0.35;;;;;;;;;;5051271;23;20123;-80
2021/04/06 10:54:38;;;;;;;5.07;0.50;;;5.30;69.40;;;;;;4952735;29;20051;-80
2021/04/06 10:57:06;;;;;;;3.22;0.43;;;5.20;69.50;;;;;;4951571;29;20103;-78
2021/04/06 10:59:33;;;;;;;2.00;0.30;;;4.60;67.30;;;;;;4954216;29;20062;-78
2021/04/06 11:02:01;;;;;;;2.58;0.70;;;5.20;69.00;;;;;;4953104;29;20183;-78
2021/04/06 11:04:28;;;;;;;3.67;0.63;;;5.20;66.70;;;;;;4951701;29;20497;-78
2021/04/06 11:06:59;;;;;;;4.50;0.60;;;5.30;67.10;;;;;;4952114;29;20055;-78
2021/04/06 11:09:26;;;;;;;2.15;0.55;;;5.40;69.00;;;;;;4949240;29;20055;-78
2021/04/06 11:11:54;;;;;;;3.80;0.40;;;5.60;67.90;;;;;;4969195;29;20061;-78
2021/04/06 11:14:22;;;;;;;6.78;0.60;;;5.60;68.30;;;;;;4968461;29;20058;-78
2021/04/06 11:16:50;;;;;;;0.82;0.30;;;5.60;68.50;;;;;;4970578;29;20202;-78
2021/04/06 11:19:17;;;;;;;2.78;0.40;;;5.60;64.70;;;;;;4972415;29;20106;-78
2021/04/06 11:21:46;;;;;;;1.48;0.63;;;5.70;66.50;;;;;;4972742;29;20051;-78
2021/04/06 11:24:14;;;;;;;4.88;0.60;;;5.70;64.40;;;;;;4970013;29;20055;-78
2021/04/06 11:26:40;;;;;;;3.45;0.88;;;5.80;63.30;;;;;;4966948;29;20109;-78
2021/04/06 11:29:08;;;;;;;0.80;0.47;;;5.80;63.10;;;;;;4967559;29;20054;-78
2021/04/06 11:31:34;;;;;;;4.47;0.65;;;5.80;64.60;;;;;;4966215;29;20051;-78
2021/04/06 11:34:01;;;;;;;3.05;1.02;;;5.90;64.20;;;;;;4966799;29;20130;-78
2021/04/06 11:36:28;;;;;;;3.70;0.70;;;5.90;63.80;;;;;;4967430;29;20098;-78
2021/04/06 11:38:54;;;;;;;2.83;0.40;;;6.00;63.10;;;;;;4964531;29;20051;-78
2021/04/06 11:41:22;;;;;;;2.80;0.40;;;5.90;62.20;;;;;;4965986;29;20047;-78
2021/04/06 11:43:48;;;;;;;5.65;0.60;;;6.00;63.50;;;;;;4964288;29;20061;-78
2021/04/06 11:46:15;;;;;;;4.57;0.47;;;6.00;64.50;;;;;;4964852;29;20047;-78
2021/04/06 11:48:42;;;;;;;3.58;0.68;;;6.10;61.60;;;;;;4964563;29;20136;-78
2021/04/06 11:51:08;;;;;;;2.60;0.60;;;6.10;62.60;;;;;;4964223;28;20069;-78
2021/04/06 11:53:35;;;;;;;3.15;0.47;;;6.10;63.20;;;;;;4961656;29;20053;-78
2021/04/06 11:56:02;;;;;;;2.00;0.38;;;6.10;65.50;;;;;;4962488;29;20051;-78
2021/04/06 11:58:29;;;;;;;2.38;0.38;;;6.20;65.30;;;;;;4961069;29;20518;-78
2021/04/06 12:00:56;;;;;;;0.98;0.52;;;6.30;65.00;;;;;;4961020;29;20051;-78
2021/04/06 12:03:22;;;;;;;3.72;0.75;;;6.30;64.90;;;;;;4962379;29;20043;-78
2021/04/06 12:05:49;;;;;;;1.58;0.50;;;6.30;64.50;;;;;;4961041;29;20061;-78
2021/04/06 12:08:15;;;;;;;0.90;0.22;;;6.20;64.60;;;;;;4961418;29;20055;-78
2021/04/06 12:10:43;;;;;;;2.00;0.38;;;6.20;68.70;;;;;;4954884;29;20137;-78
2021/04/06 12:13:10;;;;;;;1.35;0.60;;;6.20;66.60;;;;;;4943528;29;20190;-78
2021/04/06 12:15:38;;;;;;;1.90;0.40;;;6.20;68.00;;;;;;4944073;29;20058;-78
2021/04/06 12:18:05;;;;;;;4.22;1.27;;;6.10;68.90;;;;;;4944089;29;20048;-78
2021/04/06 12:20:31;;;;;;;1.77;0.40;;;6.00;67.00;;;;;;4944499;29;20087;-77
2021/04/06 12:22:58;;;;;;;4.78;1.23;;;5.90;68.50;;;;;;4944809;29;20138;-77
2021/04/06 12:25:25;;;;;;;6.88;1.02;;;5.90;68.90;;;;;;4954398;29;20385;-78
2021/04/06 12:27:53;;;;;;;1.27;0.32;;;6.00;68.90;;;;;;4953321;28;20058;-78
2021/04/06 12:32:58;;;;;;;0.30;0.30;;;6.20;65.80;;;;;;5050488;23;20070;-79
2021/04/06 12:35:24;;;;;;;2.33;0.30;;;6.20;65.80;;;;;;4944736;29;20057;-79
2021/04/06 12:37:51;;;;;;;3.38;0.50;;;6.10;69.30;;;;;;4945067;29;20152;-79
2021/04/06 12:40:20;;;;;;;4.18;0.65;;;6.10;67.50;;;;;;4949787;29;20051;-80
2021/04/06 12:42:47;;;;;;;5.78;0.60;;;6.30;70.60;;;;;;4967351;28;20114;-80
2021/04/06 12:45:17;;;;;;;1.65;0.30;;;6.40;65.00;;;;;;4967341;29;20078;-78
2021/04/06 12:47:45;;;;;;;0.50;0.28;;;6.50;63.60;;;;;;4963973;28;20047;-77
2021/04/06 12:50:15;;;;;;;0.57;0.38;;;6.50;64.10;;;;;;4964130;28;20051;-78
2021/04/06 12:52:52;;;;;;;1.30;0.30;;;6.60;62.30;;;;;;4963912;29;20066;-77
2021/04/06 12:55:19;;;;;;;1.80;0.90;;;6.50;62.60;;;;;;4962818;28;20089;-76
2021/04/06 12:57:48;;;;;;;3.60;0.50;;;6.40;61.90;;;;;;4963292;29;20058;-78
2021/04/06 13:00:17;;;;;;;1.38;0.50;;;6.30;64.50;;;;;;4972081;28;20213;-78
2021/04/06 13:02:44;;;;;;;3.65;0.80;;;6.30;63.20;;;;;;4975006;28;20054;-78
2021/04/06 13:05:14;;;;;;;2.22;0.47;;;6.30;64.30;;;;;;4977098;29;20058;-78
2021/04/06 13:07:42;;;;;;;3.50;0.65;;;6.40;66.60;;;;;;4976837;29;20139;-78
2021/04/06 13:10:11;;;;;;;2.78;0.50;;;6.50;67.10;;;;;;4970367;29;20048;-78
2021/04/06 13:12:39;;;;;;;2.22;0.30;;;6.50;64.40;;;;;;4955105;29;20492;-78
2021/04/06 13:15:08;;;;;;;2.25;0.32;;;6.60;63.50;;;;;;4953118;29;20384;-78
2021/04/06 13:17:35;;;;;;;1.38;0.45;;;6.60;62.50;;;;;;4949628;29;20130;-77
2021/04/06 13:20:02;;;;;;;2.97;1.08;;;6.70;61.50;;;;;;4956749;28;20127;-77
2021/04/06 13:22:29;;;;;;;2.80;0.35;;;6.60;63.50;;;;;;4948276;29;20058;-76
2021/04/06 13:24:56;;;;;;;3.22;0.50;;;6.50;65.60;;;;;;4946076;29;20050;-77
2021/04/06 13:27:23;;;;;;;1.17;0.40;;;6.60;64.30;;;;;;4942726;29;20413;-77
2021/04/06 13:29:51;;;;;;;3.58;0.50;;;6.60;65.40;;;;;;4943284;29;20130;-77
2021/04/06 13:32:19;;;;;;;1.30;0.45;;;6.70;64.70;;;;;;4940462;29;20048;-76
2021/04/06 13:34:47;;;;;;;3.22;0.80;;;6.70;65.70;;;;;;4939883;29;20055;-77
2021/04/06 13:37:15;;;;;;;2.35;0.38;;;6.70;66.30;;;;;;4939927;29;20059;-76
2021/04/06 13:39:44;;;;;;;3.50;0.30;;;6.80;65.40;;;;;;4939690;29;20484;-76
2021/04/06 13:42:11;;;;;;;1.92;0.52;;;6.80;68.20;;;;;;4939519;29;20381;-76
2021/04/06 13:44:39;;;;;;;0.30;0.20;;;6.80;67.80;;;;;;4939764;29;20056;-77
2021/04/06 13:47:05;;;;;;;7.65;0.32;;;6.80;67.50;;;;;;4943161;28;20048;-77
2021/04/06 13:49:32;;;;;;;3.78;0.40;;;6.90;66.60;;;;;;4939642;29;20464;-77
2021/04/06 13:51:58;;;;;;;1.50;0.63;;;6.90;66.10;;;;;;4939559;29;20055;-77